createdAt,value
2018-12-11T00:03:34.919Z,11.27
2018-12-11T00:11:56.059Z,7.43
2018-12-11T00:20:17.123Z,6.70
2018-12-11T00:28:38.199Z,9.03
2018-12-11T00:36:59.263Z,7.63
2018-12-11T00:45:20.231Z,4.63
2018-12-11T00:53:41.290Z,6.37
2018-12-11T01:02:02.477Z,5.50
2018-12-11T01:10:23.531Z,4.27
2018-12-11T01:18:44.623Z,6.00
2018-12-11T01:27:05.674Z,9.93
2018-12-11T01:35:26.759Z,7.83
2018-12-11T01:43:47.836Z,7.97
2018-12-11T01:52:08.918Z,6.63
2018-12-11T02:00:29.975Z,7.03
2018-12-11T02:08:51.928Z,7.73
2018-12-11T02:17:13.295Z,5.87
2018-12-11T02:25:34.354Z,9.33
2018-12-11T02:33:55.520Z,6.40
2018-12-11T02:42:16.689Z,6.00
2018-12-11T02:50:37.850Z,4.53
2018-12-11T02:58:58.908Z,5.57
2018-12-11T03:07:19.974Z,5.87
2018-12-11T03:15:41.030Z,4.63
2018-12-11T03:24:02.085Z,5.67
2018-12-11T03:32:23.165Z,7.43
2018-12-11T03:40:44.315Z,5.73
2018-12-11T03:49:05.480Z,6.17
2018-12-11T03:57:26.554Z,9.53
2018-12-11T04:05:47.718Z,8.67
2018-12-11T04:14:08.788Z,6.83
2018-12-11T04:22:29.947Z,7.03
2018-12-11T04:30:50.998Z,8.43
2018-12-11T04:39:12.057Z,4.30
2018-12-11T04:47:33.231Z,7.93
2018-12-11T04:55:54.291Z,5.93
2018-12-11T05:04:15.352Z,6.73
2018-12-11T05:12:36.427Z,8.40
2018-12-11T05:20:57.475Z,6.87
2018-12-11T05:29:18.531Z,5.57
2018-12-11T05:37:39.587Z,7.70
2018-12-11T05:46:00.658Z,5.13
2018-12-11T05:54:21.818Z,6.87
2018-12-11T06:02:42.882Z,6.60
2018-12-11T06:11:05.135Z,9.30
2018-12-11T06:19:26.199Z,6.33
2018-12-11T06:27:47.263Z,8.93
2018-12-11T06:36:08.324Z,10.97
2018-12-11T06:44:29.383Z,8.43
2018-12-11T06:52:50.446Z,8.53
2018-12-11T07:01:11.527Z,8.10
2018-12-11T07:09:32.582Z,7.77
2018-12-11T07:17:53.643Z,5.83
2018-12-11T07:26:14.699Z,4.47
2018-12-11T07:34:35.816Z,8.43
2018-12-11T07:42:56.946Z,8.50
2018-12-11T07:51:18.022Z,6.43
2018-12-11T07:59:40.200Z,7.33
2018-12-11T08:08:01.344Z,8.73
2018-12-11T08:16:22.915Z,8.73
2018-12-11T08:24:43.973Z,7.63
2018-12-11T08:33:05.026Z,17.90
2018-12-11T08:41:26.243Z,11.10
2018-12-11T08:49:47.362Z,10.80
2018-12-11T08:58:08.430Z,11.00
2018-12-11T09:06:29.479Z,7.50
2018-12-11T09:14:50.505Z,7.17
2018-12-11T09:23:11.563Z,7.67
2018-12-11T09:31:32.667Z,9.73
2018-12-11T09:39:53.731Z,13.23
2018-12-11T09:48:14.811Z,9.63
2018-12-11T09:56:35.879Z,12.23
2018-12-11T10:04:57.039Z,10.73
2018-12-11T10:13:18.104Z,7.17
2018-12-11T10:21:39.267Z,10.63
2018-12-11T10:30:00.333Z,10.77
2018-12-11T10:38:21.391Z,8.73
2018-12-11T10:46:42.485Z,9.67
2018-12-11T10:55:03.539Z,10.87
2018-12-11T11:03:24.587Z,7.80
2018-12-11T11:11:45.651Z,13.07
2018-12-11T11:20:06.726Z,13.67
2018-12-11T11:28:27.786Z,12.97
2018-12-11T11:36:48.852Z,12.93
2018-12-11T11:45:10.867Z,10.13
2018-12-11T11:53:31.931Z,10.27
2018-12-11T12:01:52.992Z,9.63
2018-12-11T12:10:14.061Z,9.47
2018-12-11T12:18:35.231Z,8.90
2018-12-11T12:26:56.283Z,7.97
2018-12-11T12:35:17.343Z,11.53
2018-12-11T12:43:38.404Z,9.27
2018-12-11T12:51:59.458Z,10.93
2018-12-11T13:00:20.531Z,11.87
2018-12-11T13:08:41.588Z,10.00
2018-12-11T13:17:02.771Z,8.57
2018-12-11T13:25:23.827Z,9.40
2018-12-11T13:33:44.907Z,9.13
2018-12-11T13:42:05.971Z,12.10
2018-12-11T13:50:27.030Z,10.93
2018-12-11T13:58:48.079Z,9.87
2018-12-11T14:07:09.140Z,14.00
2018-12-11T14:15:30.224Z,7.27
2018-12-11T14:23:51.279Z,14.87
2018-12-11T14:32:12.343Z,10.60
2018-12-11T14:40:33.398Z,10.17
2018-12-11T14:48:54.451Z,9.33
2018-12-11T14:57:15.514Z,8.67
2018-12-11T15:05:36.738Z,9.20
2018-12-11T15:13:57.834Z,11.23
2018-12-11T15:22:18.991Z,11.13
2018-12-11T15:30:40.155Z,11.00
2018-12-11T15:39:01.303Z,11.37
2018-12-11T15:47:22.350Z,9.33
2018-12-11T15:55:43.495Z,14.93
2018-12-11T16:04:04.556Z,11.13
2018-12-11T16:12:25.695Z,11.00
2018-12-11T16:20:46.752Z,11.87
2018-12-11T16:29:07.820Z,8.23
2018-12-11T16:37:29.103Z,10.50
2018-12-11T16:45:50.151Z,12.03
2018-12-11T16:54:11.223Z,10.47
2018-12-11T17:02:32.282Z,12.87
2018-12-11T17:10:53.432Z,13.57
2018-12-11T17:19:14.499Z,15.00
2018-12-11T17:27:35.632Z,14.93
2018-12-11T17:35:57.839Z,14.90
2018-12-11T17:44:18.991Z,16.07
2018-12-11T17:52:40.124Z,17.50
2018-12-11T18:01:01.449Z,15.03
2018-12-11T18:09:22.702Z,22.40
2018-12-11T18:17:47.495Z,17.67
2018-12-11T18:26:08.579Z,19.67
2018-12-11T18:34:29.955Z,19.57
2018-12-11T18:42:51.094Z,16.10
2018-12-11T18:51:13.266Z,21.60
2018-12-11T18:59:34.440Z,20.97
2018-12-11T19:07:55.698Z,17.77
2018-12-11T19:16:17.803Z,18.70
2018-12-11T19:24:38.913Z,24.70
2018-12-11T19:33:00.067Z,21.43
2018-12-11T19:41:21.309Z,21.63
2018-12-11T19:49:42.403Z,22.93
2018-12-11T19:58:03.539Z,20.53
2018-12-11T20:06:24.664Z,20.20
2018-12-11T20:14:45.809Z,21.43
2018-12-11T20:23:08.044Z,22.33
2018-12-11T20:31:29.105Z,19.37
2018-12-11T20:39:50.469Z,24.27
2018-12-11T20:48:11.625Z,19.17
2018-12-11T20:56:32.809Z,25.43
2018-12-11T21:04:54.983Z,22.67
2018-12-11T21:13:17.112Z,23.47
2018-12-11T21:21:38.458Z,22.47
2018-12-11T21:29:59.534Z,20.90
2018-12-11T21:38:20.618Z,16.83
2018-12-11T21:46:41.682Z,19.13
2018-12-11T21:55:03.811Z,16.83
2018-12-11T22:03:25.099Z,21.37
2018-12-11T22:11:47.232Z,18.73
2018-12-11T22:20:08.294Z,20.17
2018-12-11T22:28:29.427Z,23.63
2018-12-11T22:36:50.584Z,23.00
2018-12-11T22:45:11.639Z,24.93
2018-12-11T22:53:33.699Z,27.37
2018-12-11T23:01:54.763Z,30.17
2018-12-11T23:10:16.930Z,23.70
2018-12-11T23:18:38.079Z,23.67
2018-12-11T23:26:59.219Z,25.20
2018-12-11T23:35:20.427Z,31.40
2018-12-11T23:43:41.489Z,25.30
2018-12-11T23:52:03.431Z,26.73
